sensor_id;sensor_type;location;lat;lon;timestamp;P1;durP1;ratioP1;P2;durP2;ratioP2
14847;SDS011;7516;43.570;1.448;2022-08-16T00:02:08;4.05;;;3.30;;
14847;SDS011;7516;43.570;1.448;2022-08-16T00:04:35;3.67;;;3.30;;
14847;SDS011;7516;43.570;1.448;2022-08-16T00:07:03;3.33;;;3.03;;
14847;SDS011;7516;43.570;1.448;2022-08-16T00:09:32;3.50;;;3.20;;
14847;SDS011;7516;43.570;1.448;2022-08-16T00:12:00;3.72;;;3.30;;
14847;SDS011;7516;43.570;1.448;2022-08-16T00:14:28;4.55;;;3.10;;
14847;SDS011;7516;43.570;1.448;2022-08-16T00:16:58;4.97;;;3.15;;
14847;SDS011;7516;43.570;1.448;2022-08-16T00:19:28;4.90;;;2.83;;
14847;SDS011;7516;43.570;1.448;2022-08-16T00:21:58;3.30;;;3.00;;
14847;SDS011;7516;43.570;1.448;2022-08-16T00:24:26;3.55;;;3.25;;
14847;SDS011;7516;43.570;1.448;2022-08-16T00:26:56;4.78;;;3.40;;
14847;SDS011;7516;43.570;1.448;2022-08-16T00:29:23;5.65;;;3.40;;
14847;SDS011;7516;43.570;1.448;2022-08-16T00:31:51;3.85;;;3.55;;
14847;SDS011;7516;43.570;1.448;2022-08-16T00:34:19;3.85;;;3.35;;
14847;SDS011;7516;43.570;1.448;2022-08-16T00:36:47;4.38;;;3.72;;
14847;SDS011;7516;43.570;1.448;2022-08-16T00:39:16;4.55;;;3.75;;
14847;SDS011;7516;43.570;1.448;2022-08-16T00:41:44;4.53;;;3.75;;
14847;SDS011;7516;43.570;1.448;2022-08-16T00:44:17;4.93;;;3.90;;
14847;SDS011;7516;43.570;1.448;2022-08-16T00:46:48;5.40;;;3.38;;
14847;SDS011;7516;43.570;1.448;2022-08-16T00:49:22;4.15;;;3.35;;
14847;SDS011;7516;43.570;1.448;2022-08-16T00:51:50;3.78;;;3.42;;
14847;SDS011;7516;43.570;1.448;2022-08-16T00:54:19;3.95;;;3.35;;
14847;SDS011;7516;43.570;1.448;2022-08-16T00:56:48;3.95;;;3.55;;
14847;SDS011;7516;43.570;1.448;2022-08-16T00:59:18;4.70;;;3.50;;
14847;SDS011;7516;43.570;1.448;2022-08-16T01:01:50;3.70;;;3.40;;
14847;SDS011;7516;43.570;1.448;2022-08-16T01:04:19;4.38;;;3.30;;
14847;SDS011;7516;43.570;1.448;2022-08-16T01:06:49;3.25;;;2.95;;
14847;SDS011;7516;43.570;1.448;2022-08-16T01:09:17;3.50;;;3.20;;
14847;SDS011;7516;43.570;1.448;2022-08-16T01:11:45;3.78;;;2.97;;
14847;SDS011;7516;43.570;1.448;2022-08-16T01:14:15;3.38;;;3.08;;
14847;SDS011;7516;43.570;1.448;2022-08-16T01:16:49;3.90;;;3.20;;
14847;SDS011;7516;43.570;1.448;2022-08-16T01:19:19;3.90;;;3.10;;
14847;SDS011;7516;43.570;1.448;2022-08-16T01:21:51;3.83;;;3.42;;
14847;SDS011;7516;43.570;1.448;2022-08-16T01:24:26;4.53;;;3.20;;
14847;SDS011;7516;43.570;1.448;2022-08-16T01:26:57;3.70;;;3.40;;
14847;SDS011;7516;43.570;1.448;2022-08-16T01:29:30;4.03;;;3.17;;
14847;SDS011;7516;43.570;1.448;2022-08-16T01:32:10;3.90;;;3.30;;
14847;SDS011;7516;43.570;1.448;2022-08-16T01:34:38;4.57;;;3.20;;
14847;SDS011;7516;43.570;1.448;2022-08-16T01:37:06;4.72;;;3.17;;
14847;SDS011;7516;43.570;1.448;2022-08-16T01:39:38;3.35;;;2.90;;
14847;SDS011;7516;43.570;1.448;2022-08-16T01:42:08;4.55;;;2.97;;
14847;SDS011;7516;43.570;1.448;2022-08-16T01:44:36;4.53;;;3.13;;
14847;SDS011;7516;43.570;1.448;2022-08-16T01:47:05;3.35;;;3.05;;
14847;SDS011;7516;43.570;1.448;2022-08-16T01:49:34;3.28;;;2.97;;
14847;SDS011;7516;43.570;1.448;2022-08-16T01:52:04;4.95;;;3.05;;
14847;SDS011;7516;43.570;1.448;2022-08-16T01:54:34;3.63;;;3.08;;
14847;SDS011;7516;43.570;1.448;2022-08-16T01:57:03;3.40;;;3.08;;
14847;SDS011;7516;43.570;1.448;2022-08-16T01:59:31;3.90;;;2.90;;
14847;SDS011;7516;43.570;1.448;2022-08-16T02:02:00;3.58;;;3.28;;
14847;SDS011;7516;43.570;1.448;2022-08-16T02:04:29;3.90;;;3.20;;
14847;SDS011;7516;43.570;1.448;2022-08-16T02:06:58;5.80;;;3.92;;
14847;SDS011;7516;43.570;1.448;2022-08-16T02:09:28;4.13;;;3.33;;
14847;SDS011;7516;43.570;1.448;2022-08-16T02:11:57;3.35;;;3.05;;
14847;SDS011;7516;43.570;1.448;2022-08-16T02:14:27;3.78;;;3.47;;
14847;SDS011;7516;43.570;1.448;2022-08-16T02:16:55;4.20;;;3.30;;
14847;SDS011;7516;43.570;1.448;2022-08-16T02:19:26;3.38;;;3.05;;
14847;SDS011;7516;43.570;1.448;2022-08-16T02:21:56;3.95;;;3.28;;
14847;SDS011;7516;43.570;1.448;2022-08-16T02:24:24;3.60;;;3.30;;
14847;SDS011;7516;43.570;1.448;2022-08-16T02:26:54;5.63;;;3.50;;
14847;SDS011;7516;43.570;1.448;2022-08-16T02:29:22;3.92;;;3.20;;
14847;SDS011;7516;43.570;1.448;2022-08-16T02:31:51;3.70;;;3.00;;
14847;SDS011;7516;43.570;1.448;2022-08-16T02:34:19;3.97;;;3.42;;
14847;SDS011;7516;43.570;1.448;2022-08-16T02:36:47;3.85;;;3.38;;
14847;SDS011;7516;43.570;1.448;2022-08-16T02:39:15;3.47;;;3.17;;
14847;SDS011;7516;43.570;1.448;2022-08-16T02:41:45;3.95;;;3.55;;
14847;SDS011;7516;43.570;1.448;2022-08-16T02:44:14;4.35;;;3.30;;
14847;SDS011;7516;43.570;1.448;2022-08-16T02:46:43;3.72;;;3.20;;
14847;SDS011;7516;43.570;1.448;2022-08-16T02:49:13;3.65;;;3.35;;
14847;SDS011;7516;43.570;1.448;2022-08-16T02:51:41;4.53;;;3.25;;
14847;SDS011;7516;43.570;1.448;2022-08-16T02:54:09;4.22;;;3.28;;
14847;SDS011;7516;43.570;1.448;2022-08-16T02:56:39;5.28;;;3.72;;
14847;SDS011;7516;43.570;1.448;2022-08-16T02:59:07;4.25;;;3.45;;
14847;SDS011;7516;43.570;1.448;2022-08-16T03:01:35;4.80;;;3.60;;
14847;SDS011;7516;43.570;1.448;2022-08-16T03:04:03;3.47;;;3.17;;
14847;SDS011;7516;43.570;1.448;2022-08-16T03:06:33;3.80;;;3.50;;
14847;SDS011;7516;43.570;1.448;2022-08-16T03:09:00;4.35;;;3.22;;
14847;SDS011;7516;43.570;1.448;2022-08-16T03:11:28;4.75;;;3.40;;
14847;SDS011;7516;43.570;1.448;2022-08-16T03:13:57;6.13;;;3.50;;
14847;SDS011;7516;43.570;1.448;2022-08-16T03:16:25;3.78;;;3.38;;
14847;SDS011;7516;43.570;1.448;2022-08-16T03:18:52;3.58;;;3.28;;
14847;SDS011;7516;43.570;1.448;2022-08-16T03:21:20;3.60;;;3.30;;
14847;SDS011;7516;43.570;1.448;2022-08-16T03:23:49;3.97;;;3.50;;
14847;SDS011;7516;43.570;1.448;2022-08-16T03:26:16;3.78;;;3.40;;
14847;SDS011;7516;43.570;1.448;2022-08-16T03:28:44;3.53;;;3.22;;
14847;SDS011;7516;43.570;1.448;2022-08-16T03:31:11;3.40;;;3.10;;
14847;SDS011;7516;43.570;1.448;2022-08-16T03:33:39;3.60;;;3.30;;
14847;SDS011;7516;43.570;1.448;2022-08-16T03:36:07;3.40;;;3.10;;
14847;SDS011;7516;43.570;1.448;2022-08-16T03:38:35;4.35;;;3.45;;
14847;SDS011;7516;43.570;1.448;2022-08-16T03:41:05;3.55;;;3.25;;
14847;SDS011;7516;43.570;1.448;2022-08-16T03:43:33;4.85;;;3.10;;
14847;SDS011;7516;43.570;1.448;2022-08-16T03:46:01;3.50;;;3.20;;
14847;SDS011;7516;43.570;1.448;2022-08-16T03:48:29;3.55;;;3.25;;
14847;SDS011;7516;43.570;1.448;2022-08-16T03:50:58;4.07;;;3.45;;
14847;SDS011;7516;43.570;1.448;2022-08-16T03:53:26;4.55;;;3.25;;
14847;SDS011;7516;43.570;1.448;2022-08-16T03:55:55;4.93;;;3.38;;
14847;SDS011;7516;43.570;1.448;2022-08-16T03:58:24;3.13;;;2.88;;
14847;SDS011;7516;43.570;1.448;2022-08-16T04:00:51;3.45;;;3.13;;
14847;SDS011;7516;43.570;1.448;2022-08-16T04:03:19;3.85;;;3.55;;
14847;SDS011;7516;43.570;1.448;2022-08-16T04:05:47;3.47;;;3.17;;
14847;SDS011;7516;43.570;1.448;2022-08-16T04:08:15;4.20;;;3.20;;
14847;SDS011;7516;43.570;1.448;2022-08-16T04:10:45;5.13;;;3.50;;
14847;SDS011;7516;43.570;1.448;2022-08-16T04:13:13;3.45;;;3.15;;
14847;SDS011;7516;43.570;1.448;2022-08-16T04:15:42;3.95;;;3.45;;
14847;SDS011;7516;43.570;1.448;2022-08-16T04:18:10;5.35;;;3.72;;
14847;SDS011;7516;43.570;1.448;2022-08-16T04:20:37;3.38;;;3.08;;
14847;SDS011;7516;43.570;1.448;2022-08-16T04:23:05;3.40;;;3.10;;
14847;SDS011;7516;43.570;1.448;2022-08-16T04:25:33;3.33;;;3.03;;
14847;SDS011;7516;43.570;1.448;2022-08-16T04:28:01;4.35;;;3.03;;
14847;SDS011;7516;43.570;1.448;2022-08-16T04:30:29;4.35;;;3.63;;
14847;SDS011;7516;43.570;1.448;2022-08-16T04:32:58;4.40;;;3.20;;
14847;SDS011;7516;43.570;1.448;2022-08-16T04:35:26;3.75;;;3.13;;
14847;SDS011;7516;43.570;1.448;2022-08-16T04:37:54;3.50;;;3.20;;
14847;SDS011;7516;43.570;1.448;2022-08-16T04:40:22;3.20;;;2.90;;
14847;SDS011;7516;43.570;1.448;2022-08-16T04:42:51;3.10;;;2.67;;
14847;SDS011;7516;43.570;1.448;2022-08-16T04:45:19;3.17;;;2.88;;
14847;SDS011;7516;43.570;1.448;2022-08-16T04:47:48;3.53;;;2.83;;
14847;SDS011;7516;43.570;1.448;2022-08-16T04:50:18;3.13;;;2.88;;
14847;SDS011;7516;43.570;1.448;2022-08-16T04:52:47;3.53;;;2.97;;
14847;SDS011;7516;43.570;1.448;2022-08-16T04:55:16;3.33;;;2.97;;
14847;SDS011;7516;43.570;1.448;2022-08-16T04:57:45;3.25;;;2.95;;
14847;SDS011;7516;43.570;1.448;2022-08-16T05:00:18;3.08;;;2.80;;
14847;SDS011;7516;43.570;1.448;2022-08-16T05:02:48;3.40;;;3.10;;
14847;SDS011;7516;43.570;1.448;2022-08-16T05:05:19;3.35;;;2.60;;
14847;SDS011;7516;43.570;1.448;2022-08-16T05:07:48;3.22;;;2.78;;
14847;SDS011;7516;43.570;1.448;2022-08-16T05:10:16;4.35;;;3.05;;
14847;SDS011;7516;43.570;1.448;2022-08-16T05:12:43;4.32;;;2.97;;
14847;SDS011;7516;43.570;1.448;2022-08-16T05:15:11;3.10;;;2.83;;
14847;SDS011;7516;43.570;1.448;2022-08-16T05:17:39;2.90;;;2.70;;
14847;SDS011;7516;43.570;1.448;2022-08-16T05:20:07;3.35;;;2.72;;
14847;SDS011;7516;43.570;1.448;2022-08-16T05:22:37;3.88;;;2.88;;
14847;SDS011;7516;43.570;1.448;2022-08-16T05:25:06;3.35;;;3.05;;
14847;SDS011;7516;43.570;1.448;2022-08-16T05:27:36;3.58;;;2.70;;
14847;SDS011;7516;43.570;1.448;2022-08-16T05:30:04;3.17;;;2.83;;
14847;SDS011;7516;43.570;1.448;2022-08-16T05:32:33;3.33;;;2.90;;
14847;SDS011;7516;43.570;1.448;2022-08-16T05:35:01;3.08;;;2.83;;
14847;SDS011;7516;43.570;1.448;2022-08-16T05:37:31;3.17;;;2.88;;
14847;SDS011;7516;43.570;1.448;2022-08-16T05:40:01;3.40;;;3.10;;
14847;SDS011;7516;43.570;1.448;2022-08-16T05:42:30;3.75;;;3.05;;
14847;SDS011;7516;43.570;1.448;2022-08-16T05:44:57;4.15;;;3.00;;
14847;SDS011;7516;43.570;1.448;2022-08-16T05:47:25;3.22;;;2.92;;
14847;SDS011;7516;43.570;1.448;2022-08-16T05:49:52;4.32;;;3.80;;
14847;SDS011;7516;43.570;1.448;2022-08-16T05:52:20;3.72;;;2.63;;
14847;SDS011;7516;43.570;1.448;2022-08-16T05:54:47;3.17;;;2.88;;
14847;SDS011;7516;43.570;1.448;2022-08-16T05:57:17;2.95;;;2.65;;
14847;SDS011;7516;43.570;1.448;2022-08-16T05:59:45;3.33;;;2.97;;
14847;SDS011;7516;43.570;1.448;2022-08-16T06:02:13;2.75;;;2.53;;
14847;SDS011;7516;43.570;1.448;2022-08-16T06:04:41;2.70;;;2.50;;
14847;SDS011;7516;43.570;1.448;2022-08-16T06:07:09;3.80;;;2.58;;
14847;SDS011;7516;43.570;1.448;2022-08-16T06:09:37;2.90;;;2.50;;
14847;SDS011;7516;43.570;1.448;2022-08-16T06:12:04;3.92;;;2.50;;
14847;SDS011;7516;43.570;1.448;2022-08-16T06:14:34;3.08;;;2.88;;
14847;SDS011;7516;43.570;1.448;2022-08-16T06:17:01;6.75;;;2.65;;
14847;SDS011;7516;43.570;1.448;2022-08-16T06:19:29;2.95;;;2.60;;
14847;SDS011;7516;43.570;1.448;2022-08-16T06:21:57;3.78;;;2.90;;
14847;SDS011;7516;43.570;1.448;2022-08-16T06:24:25;2.95;;;2.60;;
14847;SDS011;7516;43.570;1.448;2022-08-16T06:26:52;4.68;;;2.70;;
14847;SDS011;7516;43.570;1.448;2022-08-16T06:29:20;3.13;;;2.80;;
14847;SDS011;7516;43.570;1.448;2022-08-16T06:31:49;3.25;;;2.90;;
14847;SDS011;7516;43.570;1.448;2022-08-16T06:34:16;2.88;;;2.53;;
14847;SDS011;7516;43.570;1.448;2022-08-16T06:36:44;2.90;;;2.60;;
14847;SDS011;7516;43.570;1.448;2022-08-16T06:39:12;2.90;;;2.70;;
14847;SDS011;7516;43.570;1.448;2022-08-16T06:41:39;2.55;;;2.35;;
14847;SDS011;7516;43.570;1.448;2022-08-16T06:44:07;2.97;;;2.78;;
14847;SDS011;7516;43.570;1.448;2022-08-16T06:46:34;2.70;;;2.50;;
14847;SDS011;7516;43.570;1.448;2022-08-16T06:49:05;5.10;;;2.80;;
14847;SDS011;7516;43.570;1.448;2022-08-16T06:51:35;2.80;;;2.60;;
14847;SDS011;7516;43.570;1.448;2022-08-16T06:54:03;2.88;;;2.58;;
14847;SDS011;7516;43.570;1.448;2022-08-16T06:56:31;2.95;;;2.55;;
14847;SDS011;7516;43.570;1.448;2022-08-16T06:58:59;2.75;;;2.45;;
14847;SDS011;7516;43.570;1.448;2022-08-16T07:01:27;3.75;;;2.60;;
14847;SDS011;7516;43.570;1.448;2022-08-16T07:03:54;2.55;;;2.30;;
14847;SDS011;7516;43.570;1.448;2022-08-16T07:06:23;2.47;;;2.22;;
14847;SDS011;7516;43.570;1.448;2022-08-16T07:08:51;3.10;;;2.28;;
14847;SDS011;7516;43.570;1.448;2022-08-16T07:11:19;2.70;;;2.50;;
14847;SDS011;7516;43.570;1.448;2022-08-16T07:13:47;2.50;;;2.30;;
14847;SDS011;7516;43.570;1.448;2022-08-16T07:16:14;2.55;;;2.35;;
14847;SDS011;7516;43.570;1.448;2022-08-16T07:18:42;2.50;;;2.30;;
14847;SDS011;7516;43.570;1.448;2022-08-16T07:21:11;2.58;;;2.35;;
14847;SDS011;7516;43.570;1.448;2022-08-16T07:23:41;2.65;;;2.45;;
14847;SDS011;7516;43.570;1.448;2022-08-16T07:26:10;2.30;;;2.10;;
14847;SDS011;7516;43.570;1.448;2022-08-16T07:28:43;3.13;;;2.50;;
14847;SDS011;7516;43.570;1.448;2022-08-16T07:31:11;2.60;;;2.38;;
14847;SDS011;7516;43.570;1.448;2022-08-16T07:33:39;2.90;;;2.40;;
14847;SDS011;7516;43.570;1.448;2022-08-16T07:36:09;4.13;;;2.53;;
14847;SDS011;7516;43.570;1.448;2022-08-16T07:38:38;2.67;;;2.25;;
14847;SDS011;7516;43.570;1.448;2022-08-16T07:41:08;3.67;;;2.50;;
14847;SDS011;7516;43.570;1.448;2022-08-16T07:43:36;3.05;;;2.67;;
14847;SDS011;7516;43.570;1.448;2022-08-16T07:46:04;2.50;;;2.30;;
14847;SDS011;7516;43.570;1.448;2022-08-16T07:48:31;3.65;;;2.30;;
14847;SDS011;7516;43.570;1.448;2022-08-16T07:50:59;2.60;;;2.40;;
14847;SDS011;7516;43.570;1.448;2022-08-16T07:53:27;2.50;;;2.30;;
14847;SDS011;7516;43.570;1.448;2022-08-16T07:55:58;2.58;;;2.38;;
14847;SDS011;7516;43.570;1.448;2022-08-16T07:58:26;3.13;;;2.30;;
14847;SDS011;7516;43.570;1.448;2022-08-16T08:00:54;2.40;;;2.20;;
14847;SDS011;7516;43.570;1.448;2022-08-16T08:03:22;2.78;;;2.50;;
14847;SDS011;7516;43.570;1.448;2022-08-16T08:05:49;2.13;;;2.00;;
14847;SDS011;7516;43.570;1.448;2022-08-16T08:08:17;2.33;;;2.13;;
14847;SDS011;7516;43.570;1.448;2022-08-16T08:10:44;3.10;;;2.80;;
14847;SDS011;7516;43.570;1.448;2022-08-16T08:13:13;2.65;;;2.45;;
14847;SDS011;7516;43.570;1.448;2022-08-16T08:15:41;2.65;;;2.40;;
14847;SDS011;7516;43.570;1.448;2022-08-16T08:18:09;2.05;;;1.95;;
14847;SDS011;7516;43.570;1.448;2022-08-16T08:20:38;2.83;;;2.50;;
14847;SDS011;7516;43.570;1.448;2022-08-16T08:23:09;2.00;;;1.90;;
14847;SDS011;7516;43.570;1.448;2022-08-16T08:25:38;5.05;;;2.40;;
14847;SDS011;7516;43.570;1.448;2022-08-16T08:28:06;2.10;;;1.95;;
14847;SDS011;7516;43.570;1.448;2022-08-16T08:30:35;2.50;;;2.30;;
14847;SDS011;7516;43.570;1.448;2022-08-16T08:33:03;2.00;;;1.90;;
14847;SDS011;7516;43.570;1.448;2022-08-16T08:35:31;2.58;;;2.38;;
14847;SDS011;7516;43.570;1.448;2022-08-16T08:37:59;2.42;;;2.10;;
14847;SDS011;7516;43.570;1.448;2022-08-16T08:40:27;2.75;;;2.08;;
14847;SDS011;7516;43.570;1.448;2022-08-16T08:42:56;2.50;;;2.00;;
14847;SDS011;7516;43.570;1.448;2022-08-16T08:45:24;2.58;;;2.30;;
14847;SDS011;7516;43.570;1.448;2022-08-16T08:47:53;2.65;;;2.08;;
14847;SDS011;7516;43.570;1.448;2022-08-16T08:50:21;2.92;;;2.50;;
14847;SDS011;7516;43.570;1.448;2022-08-16T08:52:49;2.30;;;2.10;;
14847;SDS011;7516;43.570;1.448;2022-08-16T08:55:18;4.03;;;2.30;;
14847;SDS011;7516;43.570;1.448;2022-08-16T08:57:47;3.00;;;2.33;;
14847;SDS011;7516;43.570;1.448;2022-08-16T09:00:17;2.53;;;2.30;;
14847;SDS011;7516;43.570;1.448;2022-08-16T09:02:47;2.65;;;2.10;;
14847;SDS011;7516;43.570;1.448;2022-08-16T09:05:17;5.22;;;2.50;;
14847;SDS011;7516;43.570;1.448;2022-08-16T09:07:46;3.85;;;2.30;;
14847;SDS011;7516;43.570;1.448;2022-08-16T09:10:13;2.60;;;2.40;;
14847;SDS011;7516;43.570;1.448;2022-08-16T09:12:41;1.95;;;1.85;;
14847;SDS011;7516;43.570;1.448;2022-08-16T09:15:09;2.58;;;2.10;;
14847;SDS011;7516;43.570;1.448;2022-08-16T09:17:39;2.10;;;2.00;;
14847;SDS011;7516;43.570;1.448;2022-08-16T09:20:07;3.63;;;2.10;;
14847;SDS011;7516;43.570;1.448;2022-08-16T09:22:39;2.47;;;2.28;;
14847;SDS011;7516;43.570;1.448;2022-08-16T09:25:07;2.30;;;2.10;;
14847;SDS011;7516;43.570;1.448;2022-08-16T09:27:35;2.22;;;2.03;;
14847;SDS011;7516;43.570;1.448;2022-08-16T09:30:03;2.30;;;2.10;;
14847;SDS011;7516;43.570;1.448;2022-08-16T09:32:32;2.38;;;2.17;;
14847;SDS011;7516;43.570;1.448;2022-08-16T09:35:00;3.65;;;2.63;;
14847;SDS011;7516;43.570;1.448;2022-08-16T09:37:29;3.65;;;2.35;;
14847;SDS011;7516;43.570;1.448;2022-08-16T09:39:59;2.53;;;2.33;;
14847;SDS011;7516;43.570;1.448;2022-08-16T09:42:28;5.03;;;2.60;;
14847;SDS011;7516;43.570;1.448;2022-08-16T09:44:56;2.50;;;2.10;;
14847;SDS011;7516;43.570;1.448;2022-08-16T09:47:23;3.00;;;2.70;;
14847;SDS011;7516;43.570;1.448;2022-08-16T09:49:52;2.40;;;2.20;;
14847;SDS011;7516;43.570;1.448;2022-08-16T09:52:19;2.67;;;2.10;;
14847;SDS011;7516;43.570;1.448;2022-08-16T09:54:47;2.53;;;2.33;;
14847;SDS011;7516;43.570;1.448;2022-08-16T09:57:16;3.25;;;1.83;;
14847;SDS011;7516;43.570;1.448;2022-08-16T09:59:43;2.50;;;2.30;;
14847;SDS011;7516;43.570;1.448;2022-08-16T10:02:11;2.83;;;2.03;;
14847;SDS011;7516;43.570;1.448;2022-08-16T10:04:38;3.47;;;2.38;;
14847;SDS011;7516;43.570;1.448;2022-08-16T10:07:06;2.60;;;2.40;;
14847;SDS011;7516;43.570;1.448;2022-08-16T10:09:33;3.22;;;2.53;;
14847;SDS011;7516;43.570;1.448;2022-08-16T10:12:00;2.40;;;2.20;;
14847;SDS011;7516;43.570;1.448;2022-08-16T10:14:47;3.08;;;2.40;;
14847;SDS011;7516;43.570;1.448;2022-08-16T10:17:15;3.58;;;2.70;;
14847;SDS011;7516;43.570;1.448;2022-08-16T10:19:42;3.90;;;2.55;;
14847;SDS011;7516;43.570;1.448;2022-08-16T10:22:11;4.22;;;2.80;;
14847;SDS011;7516;43.570;1.448;2022-08-16T10:24:39;2.85;;;2.47;;
14847;SDS011;7516;43.570;1.448;2022-08-16T10:27:06;2.78;;;2.40;;
14847;SDS011;7516;43.570;1.448;2022-08-16T10:29:35;3.00;;;2.42;;
14847;SDS011;7516;43.570;1.448;2022-08-16T10:32:05;3.05;;;2.75;;
14847;SDS011;7516;43.570;1.448;2022-08-16T10:34:33;4.15;;;2.80;;
14847;SDS011;7516;43.570;1.448;2022-08-16T10:37:00;3.85;;;2.60;;
14847;SDS011;7516;43.570;1.448;2022-08-16T10:39:28;3.15;;;2.65;;
14847;SDS011;7516;43.570;1.448;2022-08-16T10:41:56;3.55;;;2.50;;
14847;SDS011;7516;43.570;1.448;2022-08-16T10:44:23;3.42;;;2.53;;
14847;SDS011;7516;43.570;1.448;2022-08-16T10:46:51;5.57;;;2.88;;
14847;SDS011;7516;43.570;1.448;2022-08-16T10:49:20;3.10;;;2.80;;
14847;SDS011;7516;43.570;1.448;2022-08-16T10:51:47;4.50;;;3.10;;
14847;SDS011;7516;43.570;1.448;2022-08-16T10:54:15;3.45;;;3.00;;
14847;SDS011;7516;43.570;1.448;2022-08-16T10:56:42;3.20;;;2.78;;
14847;SDS011;7516;43.570;1.448;2022-08-16T10:59:10;3.03;;;2.72;;
14847;SDS011;7516;43.570;1.448;2022-08-16T11:01:37;3.85;;;2.85;;
14847;SDS011;7516;43.570;1.448;2022-08-16T11:04:05;3.05;;;2.70;;
14847;SDS011;7516;43.570;1.448;2022-08-16T11:06:34;3.25;;;2.95;;
14847;SDS011;7516;43.570;1.448;2022-08-16T11:09:01;2.67;;;2.47;;
14847;SDS011;7516;43.570;1.448;2022-08-16T11:11:29;3.50;;;2.78;;
14847;SDS011;7516;43.570;1.448;2022-08-16T11:13:56;3.80;;;2.97;;
14847;SDS011;7516;43.570;1.448;2022-08-16T11:16:24;3.00;;;2.70;;
14847;SDS011;7516;43.570;1.448;2022-08-16T11:18:52;3.13;;;2.83;;
14847;SDS011;7516;43.570;1.448;2022-08-16T11:21:20;3.08;;;2.88;;
14847;SDS011;7516;43.570;1.448;2022-08-16T11:23:51;3.75;;;2.65;;
14847;SDS011;7516;43.570;1.448;2022-08-16T11:26:18;3.80;;;2.70;;
14847;SDS011;7516;43.570;1.448;2022-08-16T11:28:46;5.60;;;3.47;;
14847;SDS011;7516;43.570;1.448;2022-08-16T11:31:15;3.38;;;3.05;;
14847;SDS011;7516;43.570;1.448;2022-08-16T11:33:43;4.70;;;3.03;;
14847;SDS011;7516;43.570;1.448;2022-08-16T11:36:10;3.78;;;3.13;;
14847;SDS011;7516;43.570;1.448;2022-08-16T11:38:38;5.28;;;4.35;;
14847;SDS011;7516;43.570;1.448;2022-08-16T11:41:07;4.95;;;3.67;;
14847;SDS011;7516;43.570;1.448;2022-08-16T11:43:35;5.50;;;3.60;;
14847;SDS011;7516;43.570;1.448;2022-08-16T11:46:06;4.78;;;3.70;;
14847;SDS011;7516;43.570;1.448;2022-08-16T11:48:35;3.33;;;2.97;;
14847;SDS011;7516;43.570;1.448;2022-08-16T11:51:03;3.55;;;3.22;;
14847;SDS011;7516;43.570;1.448;2022-08-16T11:53:31;4.50;;;3.55;;
14847;SDS011;7516;43.570;1.448;2022-08-16T11:55:59;3.60;;;3.20;;
14847;SDS011;7516;43.570;1.448;2022-08-16T11:58:28;6.25;;;3.70;;
14847;SDS011;7516;43.570;1.448;2022-08-16T12:00:58;4.32;;;3.60;;
14847;SDS011;7516;43.570;1.448;2022-08-16T12:03:26;5.32;;;3.70;;
14847;SDS011;7516;43.570;1.448;2022-08-16T12:05:56;5.22;;;3.83;;
14847;SDS011;7516;43.570;1.448;2022-08-16T12:08:24;3.70;;;3.40;;
14847;SDS011;7516;43.570;1.448;2022-08-16T12:10:51;4.57;;;3.92;;
14847;SDS011;7516;43.570;1.448;2022-08-16T12:13:19;4.38;;;3.70;;
14847;SDS011;7516;43.570;1.448;2022-08-16T12:15:48;4.30;;;3.53;;
14847;SDS011;7516;43.570;1.448;2022-08-16T12:18:15;6.07;;;3.60;;
14847;SDS011;7516;43.570;1.448;2022-08-16T12:20:43;4.50;;;3.38;;
14847;SDS011;7516;43.570;1.448;2022-08-16T12:23:11;5.50;;;3.90;;
14847;SDS011;7516;43.570;1.448;2022-08-16T12:25:38;4.07;;;3.67;;
14847;SDS011;7516;43.570;1.448;2022-08-16T12:28:06;5.43;;;3.80;;
14847;SDS011;7516;43.570;1.448;2022-08-16T12:30:36;5.10;;;4.20;;
14847;SDS011;7516;43.570;1.448;2022-08-16T12:33:09;8.15;;;4.63;;
14847;SDS011;7516;43.570;1.448;2022-08-16T12:35:38;6.57;;;4.85;;
14847;SDS011;7516;43.570;1.448;2022-08-16T12:38:06;5.78;;;4.70;;
14847;SDS011;7516;43.570;1.448;2022-08-16T12:40:36;7.60;;;4.70;;
14847;SDS011;7516;43.570;1.448;2022-08-16T12:43:06;7.38;;;4.63;;
14847;SDS011;7516;43.570;1.448;2022-08-16T12:45:37;5.38;;;4.57;;
14847;SDS011;7516;43.570;1.448;2022-08-16T12:48:11;6.57;;;4.47;;
14847;SDS011;7516;43.570;1.448;2022-08-16T12:50:59;6.25;;;4.82;;
14847;SDS011;7516;43.570;1.448;2022-08-16T12:53:27;6.50;;;5.10;;
14847;SDS011;7516;43.570;1.448;2022-08-16T12:55:54;6.90;;;4.80;;
14847;SDS011;7516;43.570;1.448;2022-08-16T12:58:22;5.72;;;4.82;;
14847;SDS011;7516;43.570;1.448;2022-08-16T13:00:51;7.60;;;5.82;;
14847;SDS011;7516;43.570;1.448;2022-08-16T13:03:20;5.50;;;5.00;;
14847;SDS011;7516;43.570;1.448;2022-08-16T13:05:47;6.00;;;4.80;;
14847;SDS011;7516;43.570;1.448;2022-08-16T13:08:16;7.85;;;4.88;;
14847;SDS011;7516;43.570;1.448;2022-08-16T13:10:46;9.07;;;5.38;;
14847;SDS011;7516;43.570;1.448;2022-08-16T13:13:14;8.98;;;5.00;;
14847;SDS011;7516;43.570;1.448;2022-08-16T13:15:48;6.13;;;5.30;;
14847;SDS011;7516;43.570;1.448;2022-08-16T13:18:17;7.20;;;5.05;;
14847;SDS011;7516;43.570;1.448;2022-08-16T13:20:46;7.18;;;4.80;;
14847;SDS011;7516;43.570;1.448;2022-08-16T13:23:14;7.25;;;4.90;;
14847;SDS011;7516;43.570;1.448;2022-08-16T13:25:43;5.30;;;4.80;;
14847;SDS011;7516;43.570;1.448;2022-08-16T13:28:12;6.95;;;5.22;;
14847;SDS011;7516;43.570;1.448;2022-08-16T13:30:41;6.80;;;5.10;;
14847;SDS011;7516;43.570;1.448;2022-08-16T13:33:12;8.45;;;5.30;;
14847;SDS011;7516;43.570;1.448;2022-08-16T13:35:49;6.93;;;5.15;;
14847;SDS011;7516;43.570;1.448;2022-08-16T13:38:18;5.88;;;5.10;;
14847;SDS011;7516;43.570;1.448;2022-08-16T13:40:46;7.28;;;5.32;;
14847;SDS011;7516;43.570;1.448;2022-08-16T13:43:14;7.78;;;4.97;;
14847;SDS011;7516;43.570;1.448;2022-08-16T13:45:43;9.15;;;5.18;;
14847;SDS011;7516;43.570;1.448;2022-08-16T13:48:11;7.05;;;5.38;;
14847;SDS011;7516;43.570;1.448;2022-08-16T13:50:39;6.65;;;5.10;;
14847;SDS011;7516;43.570;1.448;2022-08-16T13:53:09;8.18;;;5.25;;
14847;SDS011;7516;43.570;1.448;2022-08-16T13:55:37;7.20;;;5.22;;
14847;SDS011;7516;43.570;1.448;2022-08-16T13:58:04;5.63;;;5.13;;
14847;SDS011;7516;43.570;1.448;2022-08-16T14:00:32;6.18;;;5.18;;
14847;SDS011;7516;43.570;1.448;2022-08-16T14:03:00;7.70;;;5.30;;
14847;SDS011;7516;43.570;1.448;2022-08-16T14:05:27;5.70;;;5.20;;
14847;SDS011;7516;43.570;1.448;2022-08-16T14:07:55;6.75;;;5.07;;
14847;SDS011;7516;43.570;1.448;2022-08-16T14:10:24;6.28;;;5.63;;
14847;SDS011;7516;43.570;1.448;2022-08-16T14:12:51;6.10;;;5.50;;
14847;SDS011;7516;43.570;1.448;2022-08-16T14:15:19;6.53;;;5.25;;
14847;SDS011;7516;43.570;1.448;2022-08-16T14:17:46;7.00;;;6.07;;
14847;SDS011;7516;43.570;1.448;2022-08-16T14:20:14;9.55;;;5.57;;
14847;SDS011;7516;43.570;1.448;2022-08-16T14:22:42;7.25;;;5.40;;
14847;SDS011;7516;43.570;1.448;2022-08-16T14:25:10;7.32;;;5.30;;
14847;SDS011;7516;43.570;1.448;2022-08-16T14:27:41;7.45;;;5.13;;
14847;SDS011;7516;43.570;1.448;2022-08-16T14:30:10;6.70;;;5.32;;
14847;SDS011;7516;43.570;1.448;2022-08-16T14:32:39;6.20;;;5.22;;
14847;SDS011;7516;43.570;1.448;2022-08-16T14:35:09;6.38;;;4.78;;
14847;SDS011;7516;43.570;1.448;2022-08-16T14:37:38;5.82;;;5.22;;
14847;SDS011;7516;43.570;1.448;2022-08-16T14:40:07;5.38;;;4.57;;
14847;SDS011;7516;43.570;1.448;2022-08-16T14:42:36;6.80;;;4.75;;
14847;SDS011;7516;43.570;1.448;2022-08-16T14:45:07;5.82;;;4.50;;
14847;SDS011;7516;43.570;1.448;2022-08-16T14:47:37;6.15;;;4.68;;
14847;SDS011;7516;43.570;1.448;2022-08-16T14:50:06;7.60;;;4.88;;
14847;SDS011;7516;43.570;1.448;2022-08-16T14:52:35;6.30;;;4.65;;
14847;SDS011;7516;43.570;1.448;2022-08-16T14:55:03;6.63;;;4.43;;
14847;SDS011;7516;43.570;1.448;2022-08-16T14:57:31;5.00;;;4.30;;
14847;SDS011;7516;43.570;1.448;2022-08-16T14:59:59;5.88;;;5.28;;
14847;SDS011;7516;43.570;1.448;2022-08-16T15:02:28;7.40;;;5.03;;
14847;SDS011;7516;43.570;1.448;2022-08-16T15:04:57;6.65;;;5.97;;
14847;SDS011;7516;43.570;1.448;2022-08-16T15:07:24;7.38;;;5.80;;
14847;SDS011;7516;43.570;1.448;2022-08-16T15:09:52;7.75;;;6.18;;